Time;durP1;ratioP1;P1;durP2;ratioP2;P2;SDS_P1;SDS_P2;PMS_P1;PMS_P2;Temp;Humidity;BMP_temperature;BMP_pressure;BME280_temperature;BME280_humidity;BME280_pressure;Samples;Min_cycle;Max_cycle;Signal;HPM_P1;HPM_P2
2021/03/23 00:02:10;;;;;;;13.17;4.50;;;;;;;;;;4955998;28;20662;-71
2021/03/23 00:05:14;;;;;;;11.67;4.40;;;;;;;;;;4974186;28;20898;-71
2021/03/23 00:08:37;;;;;;;13.93;5.10;;;;;;;;;;4962504;28;20554;-72
2021/03/23 00:11:42;;;;;;;9.23;5.00;;;;;;;;;;4953243;28;20643;-70
2021/03/23 00:14:46;;;;;;;9.57;4.60;;;;;;;;;;4943788;28;20625;-71
2021/03/23 00:17:51;;;;;;;10.23;4.87;;;;;;;;;;4958841;28;20939;-70
2021/03/23 00:20:55;;;;;;;6.87;4.93;;;;;;;;;;4938605;28;20586;-70
2021/03/23 00:24:00;;;;;;;8.43;4.70;;;;;;;;;;4977854;28;20879;-71
2021/03/23 00:27:06;;;;;;;12.73;5.30;;;;;;;;;;4954692;28;20594;-70
2021/03/23 00:30:12;;;;;;;10.43;5.07;;;;;;;;;;4944238;28;20542;-72
2021/03/23 00:33:16;;;;;;;7.93;5.23;;;;;;;;;;4935678;29;21043;-72
2021/03/23 00:36:23;;;;;;;9.33;4.83;;;;;;;;;;4938134;28;20601;-70
2021/03/23 00:39:27;;;;;;;12.83;5.63;;;;;;;;;;4977801;28;20543;-71
2021/03/23 00:42:33;;;;;;;10.37;5.73;;;;;;;;;;4954620;28;20653;-71
2021/03/23 00:45:41;;;;;;;11.97;6.10;;;;;;;;;;4967277;28;20599;-70
2021/03/23 00:48:45;;;;;;;12.63;5.53;;;;;;;;;;4965566;28;20551;-71
2021/03/23 00:51:49;;;;;;;9.90;5.43;;;;;;;;;;4977413;28;20621;-72
2021/03/23 00:54:54;;;;;;;10.63;5.37;;;;;;;;;;4975767;28;21160;-70
2021/03/23 00:57:58;;;;;;;10.17;5.30;;;;;;;;;;4976351;28;20586;-70
2021/03/23 01:01:02;;;;;;;10.73;5.37;;;;;;;;;;4954379;28;20622;-72
2021/03/23 01:04:07;;;;;;;11.17;5.60;;;;;;;;;;4965282;28;20547;-71
2021/03/23 01:07:11;;;;;;;14.73;5.37;;;;;;;;;;4957737;28;20591;-70
2021/03/23 01:10:19;;;;;;;9.93;4.87;;;;;;;;;;4957836;29;20551;-71
2021/03/23 01:13:26;;;;;;;11.00;5.10;;;;;;;;;;4957596;29;20595;-72
2021/03/23 01:16:30;;;;;;;10.37;5.17;;;;;;;;;;4946041;29;21143;-70
2021/03/23 01:19:35;;;;;;;9.27;5.43;;;;;;;;;;4945903;29;20551;-71
2021/03/23 01:22:39;;;;;;;11.53;5.93;;;;;;;;;;4957616;28;20650;-72
2021/03/23 01:25:43;;;;;;;9.57;5.60;;;;;;;;;;4957632;28;20597;-70
2021/03/23 01:28:47;;;;;;;14.37;6.10;;;;;;;;;;4977009;28;20547;-72
2021/03/23 01:31:51;;;;;;;9.60;6.13;;;;;;;;;;4964751;28;20617;-71
2021/03/23 01:34:55;;;;;;;12.87;5.47;;;;;;;;;;4962883;28;20622;-70
2021/03/23 01:38:00;;;;;;;11.30;6.33;;;;;;;;;;4965031;28;20554;-72
2021/03/23 01:41:04;;;;;;;10.87;6.03;;;;;;;;;;4942627;28;20625;-71
2021/03/23 01:44:08;;;;;;;15.73;6.93;;;;;;;;;;4964189;28;20627;-70
2021/03/23 01:47:12;;;;;;;12.43;6.57;;;;;;;;;;4964898;28;20598;-70
2021/03/23 01:50:18;;;;;;;10.97;5.83;;;;;;;;;;4976584;28;20547;-72
2021/03/23 01:53:34;;;;;;;12.50;6.30;;;;;;;;;;4958797;28;20591;-71
2021/03/23 01:56:38;;;;;;;13.00;6.37;;;;;;;;;;4945097;29;20556;-71
2021/03/23 01:59:46;;;;;;;9.33;5.87;;;;;;;;;;4970875;28;20625;-70
2021/03/23 02:02:50;;;;;;;13.93;6.53;;;;;;;;;;4957804;28;20663;-70
2021/03/23 02:05:57;;;;;;;14.13;7.50;;;;;;;;;;4944764;29;20603;-71
2021/03/23 02:09:03;;;;;;;14.27;6.80;;;;;;;;;;4971929;28;20594;-70
2021/03/23 02:12:11;;;;;;;14.57;7.80;;;;;;;;;;4945049;29;20630;-72
2021/03/23 02:15:19;;;;;;;15.90;7.63;;;;;;;;;;4945006;29;21089;-72
2021/03/23 02:18:25;;;;;;;13.57;7.80;;;;;;;;;;4956661;28;20548;-70
2021/03/23 02:21:29;;;;;;;15.83;8.43;;;;;;;;;;4944582;29;21258;-70
2021/03/23 02:24:34;;;;;;;13.43;7.93;;;;;;;;;;4974712;28;20610;-70
2021/03/23 02:27:38;;;;;;;17.07;7.50;;;;;;;;;;4963677;28;20594;-72
2021/03/23 02:30:43;;;;;;;14.20;7.97;;;;;;;;;;4937549;28;20591;-70
2021/03/23 02:33:48;;;;;;;14.93;8.30;;;;;;;;;;4968377;28;20630;-72
2021/03/23 02:36:52;;;;;;;11.57;7.57;;;;;;;;;;4975923;28;20546;-72
2021/03/23 02:39:57;;;;;;;12.47;7.60;;;;;;;;;;4974993;28;20594;-70
2021/03/23 02:43:01;;;;;;;13.83;7.07;;;;;;;;;;4957735;28;20647;-70
2021/03/23 02:46:06;;;;;;;12.43;7.27;;;;;;;;;;4956141;28;20587;-71
2021/03/23 02:49:10;;;;;;;14.87;8.33;;;;;;;;;;4957174;28;20591;-70
2021/03/23 02:52:17;;;;;;;16.87;8.33;;;;;;;;;;4944174;29;20626;-71
2021/03/23 02:55:21;;;;;;;12.93;8.20;;;;;;;;;;4955899;29;20555;-71
2021/03/23 02:58:26;;;;;;;16.03;8.97;;;;;;;;;;4947686;28;20586;-70
2021/03/23 03:01:30;;;;;;;17.60;8.97;;;;;;;;;;4975187;28;20626;-71
2021/03/23 03:04:34;;;;;;;15.43;8.53;;;;;;;;;;4956978;28;20627;-70
2021/03/23 03:07:39;;;;;;;14.83;8.00;;;;;;;;;;4956256;28;21066;-70
2021/03/23 03:10:43;;;;;;;17.23;8.87;;;;;;;;;;4975003;28;20558;-71
2021/03/23 03:13:47;;;;;;;18.23;9.20;;;;;;;;;;4951631;29;20598;-70
2021/03/23 03:16:52;;;;;;;15.47;8.27;;;;;;;;;;4955726;28;20590;-70
2021/03/23 03:19:56;;;;;;;18.23;10.00;;;;;;;;;;4975016;28;20558;-71
2021/03/23 03:23:00;;;;;;;16.57;8.97;;;;;;;;;;4969765;28;20659;-70
2021/03/23 03:26:06;;;;;;;16.70;9.27;;;;;;;;;;4966557;28;21180;-70
2021/03/23 03:29:10;;;;;;;17.97;9.67;;;;;;;;;;4965799;28;20622;-70
2021/03/23 03:32:15;;;;;;;16.70;8.90;;;;;;;;;;4944555;28;20622;-70
2021/03/23 03:35:22;;;;;;;19.07;10.00;;;;;;;;;;4985052;22;20688;-74
2021/03/23 03:38:26;;;;;;;14.60;9.30;;;;;;;;;;4962917;28;20957;-74
2021/03/23 03:41:30;;;;;;;16.83;9.73;;;;;;;;;;4973788;28;21198;-74
2021/03/23 03:44:35;;;;;;;16.57;9.70;;;;;;;;;;4974566;28;20586;-74
2021/03/23 03:47:39;;;;;;;20.53;9.87;;;;;;;;;;4974902;28;20550;-74
2021/03/23 03:50:44;;;;;;;16.70;9.60;;;;;;;;;;4964214;28;20582;-74
2021/03/23 03:53:48;;;;;;;19.87;9.87;;;;;;;;;;4987742;28;20589;-74
2021/03/23 03:56:52;;;;;;;18.37;10.43;;;;;;;;;;4962775;28;20550;-73
2021/03/23 03:59:57;;;;;;;20.47;10.30;;;;;;;;;;4985682;28;20961;-73
2021/03/23 04:03:04;;;;;;;21.27;10.67;;;;;;;;;;4986516;28;21282;-73
2021/03/23 04:06:08;;;;;;;21.50;10.50;;;;;;;;;;4974705;28;20550;-74
2021/03/23 04:09:12;;;;;;;19.03;10.53;;;;;;;;;;4979922;28;20600;-74
2021/03/23 04:12:16;;;;;;;19.37;10.40;;;;;;;;;;4992749;28;20628;-74
2021/03/23 04:15:23;;;;;;;19.10;11.20;;;;;;;;;;4974378;28;20597;-74
2021/03/23 04:18:28;;;;;;;20.90;11.33;;;;;;;;;;4974038;28;20950;-74
2021/03/23 04:21:33;;;;;;;23.00;11.00;;;;;;;;;;4974277;28;20668;-73
2021/03/23 04:24:37;;;;;;;19.50;11.60;;;;;;;;;;4993906;28;21001;-74
2021/03/23 04:27:42;;;;;;;20.50;10.60;;;;;;;;;;4979621;28;20597;-74
2021/03/23 04:30:47;;;;;;;22.00;11.57;;;;;;;;;;4991166;28;20601;-74
2021/03/23 04:33:51;;;;;;;19.73;11.13;;;;;;;;;;4980168;28;20596;-74
2021/03/23 04:36:56;;;;;;;23.00;12.53;;;;;;;;;;4962063;28;20541;-74
2021/03/23 04:40:02;;;;;;;22.97;12.37;;;;;;;;;;4976058;28;20945;-73
2021/03/23 04:43:07;;;;;;;25.37;12.43;;;;;;;;;;4986532;28;21190;-74
2021/03/23 04:46:13;;;;;;;19.10;11.53;;;;;;;;;;4979240;28;21166;-73
2021/03/23 04:49:17;;;;;;;20.57;12.63;;;;;;;;;;4989453;28;20603;-74
2021/03/23 04:52:21;;;;;;;22.77;12.43;;;;;;;;;;4973967;28;20630;-74
2021/03/23 04:55:25;;;;;;;23.53;11.80;;;;;;;;;;4973875;28;20557;-74
2021/03/23 04:58:30;;;;;;;22.97;12.97;;;;;;;;;;4963669;28;20545;-74
2021/03/23 05:01:35;;;;;;;20.67;12.63;;;;;;;;;;4977728;28;20621;-71
2021/03/23 05:04:39;;;;;;;22.90;12.40;;;;;;;;;;4954741;28;20629;-71
2021/03/23 05:07:44;;;;;;;23.80;13.30;;;;;;;;;;4977148;28;20550;-71
2021/03/23 05:10:49;;;;;;;25.13;12.80;;;;;;;;;;4987401;28;20600;-71
2021/03/23 05:13:53;;;;;;;27.30;12.80;;;;;;;;;;4981023;28;20610;-71
2021/03/23 05:16:58;;;;;;;24.27;13.43;;;;;;;;;;4954221;28;20613;-70
2021/03/23 05:20:04;;;;;;;23.83;13.37;;;;;;;;;;4977200;28;20553;-71
2021/03/23 05:23:12;;;;;;;24.73;13.33;;;;;;;;;;4978104;28;20677;-71
2021/03/23 05:26:16;;;;;;;27.63;14.23;;;;;;;;;;4953911;28;21167;-71
2021/03/23 05:29:21;;;;;;;28.70;13.90;;;;;;;;;;4989997;28;20605;-71
2021/03/23 05:32:25;;;;;;;23.53;13.73;;;;;;;;;;4982874;28;20648;-71
2021/03/23 05:35:30;;;;;;;29.47;15.10;;;;;;;;;;4996025;28;20621;-71
2021/03/23 05:38:34;;;;;;;24.20;16.10;;;;;;;;;;4978096;28;21176;-73
2021/03/23 05:41:52;;;;;;;23.83;13.90;;;;;;;;;;4976759;28;21218;-73
2021/03/23 05:45:02;;;;;;;26.00;14.97;;;;;;;;;;4964749;28;20617;-73
2021/03/23 05:48:16;;;;;;;28.40;14.83;;;;;;;;;;4976586;28;20602;-72
2021/03/23 05:51:43;;;;;;;29.03;15.27;;;;;;;;;;4964835;28;21206;-73
2021/03/23 05:55:04;;;;;;;29.00;15.67;;;;;;;;;;4976499;28;21131;-72
2021/03/23 05:58:23;;;;;;;27.03;14.63;;;;;;;;;;4968133;28;20602;-73
2021/03/23 06:01:32;;;;;;;28.17;13.83;;;;;;;;;;4972467;28;20628;-72
2021/03/23 06:04:45;;;;;;;24.23;14.83;;;;;;;;;;4982235;28;20660;-73
2021/03/23 06:07:50;;;;;;;25.53;14.57;;;;;;;;;;4993964;28;20600;-72
2021/03/23 06:11:28;;;;;;;28.53;15.77;;;;;;;;;;4978218;28;20603;-72
2021/03/23 06:14:57;;;;;;;28.90;14.47;;;;;;;;;;4978383;28;20623;-72
2021/03/23 06:18:43;;;;;;;25.00;14.13;;;;;;;;;;4976172;28;20547;-72
2021/03/23 06:21:52;;;;;;;30.83;16.60;;;;;;;;;;4967495;28;20625;-72
2021/03/23 06:25:18;;;;;;;30.27;17.30;;;;;;;;;;4976271;28;20617;-72
2021/03/23 06:28:41;;;;;;;25.53;14.50;;;;;;;;;;4976111;28;20555;-73
2021/03/23 06:31:59;;;;;;;32.57;15.93;;;;;;;;;;4978840;28;20653;-73
2021/03/23 06:35:06;;;;;;;27.03;14.30;;;;;;;;;;4995139;28;20624;-73
2021/03/23 06:38:33;;;;;;;27.50;15.50;;;;;;;;;;4995174;28;20549;-73
2021/03/23 06:41:57;;;;;;;29.13;15.37;;;;;;;;;;4994728;28;20636;-73
2021/03/23 06:45:21;;;;;;;25.00;14.60;;;;;;;;;;4995015;28;20604;-73
2021/03/23 06:48:29;;;;;;;51.40;34.47;;;;;;;;;;4982755;28;20553;-73
2021/03/23 06:51:34;;;;;;;48.77;36.47;;;;;;;;;;4994746;28;20628;-72
2021/03/23 06:54:40;;;;;;;30.83;19.97;;;;;;;;;;4994590;28;20549;-73
2021/03/23 06:57:45;;;;;;;35.30;22.97;;;;;;;;;;4994826;28;20548;-72
2021/03/23 07:01:14;;;;;;;34.10;19.00;;;;;;;;;;4983207;28;20905;-73
2021/03/23 07:04:25;;;;;;;28.57;16.10;;;;;;;;;;4994377;28;20628;-72
2021/03/23 07:07:29;;;;;;;29.00;15.20;;;;;;;;;;4994640;28;20551;-72
2021/03/23 07:10:52;;;;;;;31.53;15.33;;;;;;;;;;4974895;28;20554;-72
2021/03/23 07:13:56;;;;;;;29.43;14.23;;;;;;;;;;4975654;28;21082;-72
2021/03/23 07:17:24;;;;;;;25.13;14.83;;;;;;;;;;4974773;28;20620;-72
2021/03/23 07:20:28;;;;;;;28.67;15.43;;;;;;;;;;4975068;28;20546;-72
2021/03/23 07:23:37;;;;;;;27.57;15.90;;;;;;;;;;4974736;28;20577;-72
2021/03/23 07:26:57;;;;;;;28.17;16.47;;;;;;;;;;4974916;28;20548;-72
2021/03/23 07:30:24;;;;;;;25.20;15.03;;;;;;;;;;4962835;28;20570;-72
2021/03/23 07:33:58;;;;;;;26.50;15.67;;;;;;;;;;4963197;28;20550;-72
2021/03/23 07:37:41;;;;;;;31.07;16.03;;;;;;;;;;4962969;28;20618;-72
2021/03/23 07:40:48;;;;;;;27.87;15.57;;;;;;;;;;4974541;28;20563;-72
2021/03/23 07:44:06;;;;;;;28.93;15.77;;;;;;;;;;4974946;28;20657;-72
2021/03/23 07:47:44;;;;;;;25.10;15.43;;;;;;;;;;4974689;28;20198;-73
2021/03/23 07:50:55;;;;;;;28.40;16.07;;;;;;;;;;4963227;28;20193;-73
2021/03/23 07:54:11;;;;;;;24.60;15.70;;;;;;;;;;4974895;28;20198;-73
2021/03/23 07:57:41;;;;;;;25.90;15.07;;;;;;;;;;4951697;28;20190;-73
2021/03/23 08:01:19;;;;;;;25.77;15.63;;;;;;;;;;4974476;28;20187;-72
2021/03/23 08:04:46;;;;;;;32.03;16.27;;;;;;;;;;4962418;28;20222;-72
2021/03/23 08:08:08;;;;;;;23.67;15.20;;;;;;;;;;4962887;28;20183;-72
2021/03/23 08:12:01;;;;;;;26.23;15.27;;;;;;;;;;4974540;28;20234;-72
2021/03/23 08:15:29;;;;;;;25.47;14.77;;;;;;;;;;4953923;28;20187;-73
2021/03/23 08:18:45;;;;;;;24.07;15.60;;;;;;;;;;4974424;28;20198;-72
2021/03/23 08:21:50;;;;;;;31.60;15.93;;;;;;;;;;4974266;28;20237;-72
2021/03/23 08:25:40;;;;;;;27.60;15.47;;;;;;;;;;4974478;28;20226;-73
2021/03/23 08:29:20;;;;;;;23.13;14.20;;;;;;;;;;4962126;28;20216;-72
2021/03/23 08:32:36;;;;;;;21.63;13.23;;;;;;;;;;4917344;28;20239;-72
2021/03/23 08:36:00;;;;;;;54.67;15.33;;;;;;;;;;4977934;28;20214;-72
2021/03/23 08:39:23;;;;;;;31.63;17.70;;;;;;;;;;4971992;28;20187;-72
2021/03/23 08:42:30;;;;;;;22.03;14.60;;;;;;;;;;4978437;28;20219;-72
2021/03/23 08:45:41;;;;;;;26.20;14.30;;;;;;;;;;4977811;28;20225;-73
2021/03/23 08:48:58;;;;;;;24.43;15.00;;;;;;;;;;4977865;28;20187;-73
2021/03/23 08:52:16;;;;;;;28.67;18.10;;;;;;;;;;4966345;28;20609;-72
2021/03/23 08:55:24;;;;;;;28.17;15.37;;;;;;;;;;4995103;28;20200;-73
2021/03/23 08:58:53;;;;;;;26.37;15.00;;;;;;;;;;4996799;28;20677;-72
2021/03/23 09:01:58;;;;;;;26.77;15.27;;;;;;;;;;4996816;28;20226;-72
2021/03/23 09:05:17;;;;;;;28.00;16.30;;;;;;;;;;4996783;28;20229;-72
2021/03/23 09:08:21;;;;;;;24.03;15.80;;;;;;;;;;4973762;28;20197;-73
2021/03/23 09:11:31;;;;;;;31.77;18.47;;;;;;;;;;4971597;28;20222;-73
2021/03/23 09:15:12;;;;;;;24.30;15.70;;;;;;;;;;4989529;28;20201;-73
2021/03/23 09:18:16;;;;;;;27.57;15.13;;;;;;;;;;4976127;28;20203;-73
2021/03/23 09:21:20;;;;;;;23.67;14.80;;;;;;;;;;4977310;28;20237;-73
2021/03/23 09:24:29;;;;;;;23.53;14.40;;;;;;;;;;4977344;28;20663;-73
2021/03/23 09:27:36;;;;;;;29.23;14.93;;;;;;;;;;4965577;28;20681;-73
2021/03/23 09:30:47;;;;;;;23.03;13.87;;;;;;;;;;4977074;28;20668;-72
2021/03/23 09:33:54;;;;;;;24.47;14.53;;;;;;;;;;4977185;28;20220;-72
2021/03/23 09:37:28;;;;;;;26.03;15.77;;;;;;;;;;5007546;22;20246;-69
2021/03/23 09:40:38;;;;;;;26.97;15.70;;;;;;;;;;4994390;28;20194;-69
2021/03/23 09:43:43;;;;;;;23.40;13.93;;;;;;;;;;4948438;28;20192;-69
2021/03/23 09:46:53;;;;;;;26.23;14.90;;;;;;;;;;4960819;28;20222;-69
2021/03/23 09:49:57;;;;;;;19.40;13.73;;;;;;;;;;4977403;28;20187;-70
2021/03/23 09:53:28;;;;;;;24.47;14.53;;;;;;;;;;4964834;28;20237;-69
2021/03/23 09:56:37;;;;;;;29.87;21.20;;;;;;;;;;4977749;28;20199;-70
2021/03/23 09:59:50;;;;;;;28.53;19.13;;;;;;;;;;4952517;29;20210;-69
2021/03/23 10:02:55;;;;;;;21.03;14.17;;;;;;;;;;4945944;29;20223;-69
2021/03/23 10:06:03;;;;;;;25.83;15.03;;;;;;;;;;4971965;28;20226;-69
2021/03/23 10:09:08;;;;;;;27.23;14.77;;;;;;;;;;4972173;28;20213;-70
2021/03/23 10:12:27;;;;;;;27.60;14.03;;;;;;;;;;4973302;28;20250;-69
2021/03/23 10:15:35;;;;;;;21.17;13.63;;;;;;;;;;4957127;28;20200;-69
2021/03/23 10:18:40;;;;;;;24.20;15.00;;;;;;;;;;4934036;29;20187;-70
2021/03/23 10:21:49;;;;;;;27.57;15.10;;;;;;;;;;4969884;28;20241;-68
2021/03/23 10:24:54;;;;;;;24.20;14.90;;;;;;;;;;4956827;28;20238;-69
2021/03/23 10:28:04;;;;;;;32.73;14.57;;;;;;;;;;4962978;28;20198;-69
2021/03/23 10:31:11;;;;;;;27.20;14.70;;;;;;;;;;4963912;28;20224;-70
2021/03/23 10:34:19;;;;;;;24.60;14.57;;;;;;;;;;4944733;28;20210;-69
2021/03/23 10:37:23;;;;;;;24.37;14.80;;;;;;;;;;4960287;28;20221;-68
2021/03/23 10:40:31;;;;;;;19.27;13.20;;;;;;;;;;4944531;28;20211;-68
2021/03/23 10:43:38;;;;;;;25.33;13.77;;;;;;;;;;4956432;29;20184;-70
2021/03/23 10:46:44;;;;;;;22.50;14.23;;;;;;;;;;4944671;28;20231;-69
2021/03/23 10:49:48;;;;;;;26.17;14.40;;;;;;;;;;4975813;28;20691;-70
2021/03/23 10:53:08;;;;;;;23.70;15.97;;;;;;;;;;4944408;29;20223;-71
2021/03/23 10:56:20;;;;;;;22.27;13.50;;;;;;;;;;4955738;28;20199;-72
2021/03/23 10:59:27;;;;;;;22.90;14.33;;;;;;;;;;4956984;28;20210;-70
2021/03/23 11:02:32;;;;;;;21.47;12.87;;;;;;;;;;4964796;28;20230;-70
2021/03/23 11:05:44;;;;;;;19.83;12.37;;;;;;;;;;4941507;28;20218;-71
2021/03/23 11:08:48;;;;;;;20.23;12.87;;;;;;;;;;4966677;28;20206;-71
2021/03/23 11:11:53;;;;;;;24.10;12.90;;;;;;;;;;4951349;28;20249;-71
2021/03/23 11:14:59;;;;;;;22.70;13.93;;;;;;;;;;4963139;28;20210;-72
2021/03/23 11:18:07;;;;;;;118.77;48.63;;;;;;;;;;4965125;28;20205;-71
2021/03/23 11:21:14;;;;;;;21.33;12.80;;;;;;;;;;4943775;29;20295;-71
2021/03/23 11:24:18;;;;;;;31.67;18.83;;;;;;;;;;4967855;28;20202;-70
2021/03/23 11:27:27;;;;;;;18.40;11.80;;;;;;;;;;4955754;28;20200;-70
2021/03/23 11:30:31;;;;;;;19.43;11.47;;;;;;;;;;4961991;28;20197;-70
2021/03/23 11:33:36;;;;;;;17.60;11.30;;;;;;;;;;4947826;28;20210;-70
2021/03/23 11:36:41;;;;;;;20.43;14.57;;;;;;;;;;4970004;28;20568;-70
2021/03/23 11:39:45;;;;;;;18.50;11.60;;;;;;;;;;4962977;28;20192;-70
2021/03/23 11:42:50;;;;;;;19.17;12.23;;;;;;;;;;4955485;29;20230;-71
2021/03/23 11:46:01;;;;;;;21.60;13.17;;;;;;;;;;4955360;29;20223;-71
2021/03/23 11:49:11;;;;;;;16.87;10.67;;;;;;;;;;4957373;28;20203;-69
2021/03/23 11:52:17;;;;;;;17.03;11.00;;;;;;;;;;4956654;28;20223;-69
2021/03/23 11:55:25;;;;;;;16.00;9.63;;;;;;;;;;4955484;28;20261;-69
2021/03/23 11:58:30;;;;;;;16.00;10.00;;;;;;;;;;4971639;28;20191;-71
2021/03/23 12:01:35;;;;;;;15.50;9.93;;;;;;;;;;4974070;28;20229;-70
2021/03/23 12:04:39;;;;;;;15.53;10.37;;;;;;;;;;4970119;28;20195;-70
2021/03/23 12:07:59;;;;;;;17.13;9.80;;;;;;;;;;4962650;28;20565;-70
2021/03/23 12:11:12;;;;;;;13.17;8.80;;;;;;;;;;4963145;28;20227;-70
2021/03/23 12:14:38;;;;;;;15.73;9.63;;;;;;;;;;4958957;28;20195;-70
2021/03/23 12:17:49;;;;;;;14.57;9.50;;;;;;;;;;4977286;28;20199;-68
2021/03/23 12:20:58;;;;;;;13.53;9.17;;;;;;;;;;4977855;28;20535;-69
2021/03/23 12:24:03;;;;;;;14.87;9.73;;;;;;;;;;4963662;28;20203;-69
2021/03/23 12:27:09;;;;;;;15.27;8.47;;;;;;;;;;4977885;28;20214;-70
2021/03/23 12:30:14;;;;;;;13.20;7.80;;;;;;;;;;4976505;28;20186;-69
2021/03/23 12:33:18;;;;;;;15.07;9.27;;;;;;;;;;4950690;29;20207;-69
2021/03/23 12:36:23;;;;;;;17.53;10.27;;;;;;;;;;4962104;28;20214;-69
2021/03/23 12:39:27;;;;;;;12.67;8.67;;;;;;;;;;4971493;28;20207;-69
2021/03/23 12:42:31;;;;;;;14.67;8.77;;;;;;;;;;4973676;28;20223;-69
2021/03/23 12:45:39;;;;;;;13.27;8.93;;;;;;;;;;4965512;28;20187;-69
2021/03/23 12:48:44;;;;;;;14.00;8.67;;;;;;;;;;4965822;28;20207;-70
2021/03/23 12:51:52;;;;;;;15.03;8.87;;;;;;;;;;4947374;28;20227;-69
2021/03/23 12:54:56;;;;;;;12.87;8.07;;;;;;;;;;4941871;28;20202;-69
2021/03/23 12:58:03;;;;;;;14.00;8.97;;;;;;;;;;4958890;28;20195;-68
2021/03/23 13:01:07;;;;;;;12.03;6.60;;;;;;;;;;4966530;28;20227;-69
2021/03/23 13:04:13;;;;;;;10.47;6.73;;;;;;;;;;4958084;29;20187;-70
2021/03/23 13:07:23;;;;;;;10.00;6.57;;;;;;;;;;4963977;28;20211;-69
2021/03/23 13:10:33;;;;;;;9.50;6.00;;;;;;;;;;4958002;29;20188;-69
2021/03/23 13:13:45;;;;;;;17.60;10.37;;;;;;;;;;4947191;28;20188;-69
2021/03/23 13:16:51;;;;;;;9.87;5.83;;;;;;;;;;4969194;28;20201;-69
2021/03/23 13:19:54;;;;;;;9.73;5.90;;;;;;;;;;4957036;28;20187;-68
2021/03/23 13:23:02;;;;;;;9.07;6.17;;;;;;;;;;4962721;28;20223;-69
2021/03/23 13:26:07;;;;;;;9.27;6.17;;;;;;;;;;4970603;28;20230;-69
2021/03/23 13:29:11;;;;;;;11.50;6.80;;;;;;;;;;4964242;28;20574;-69
2021/03/23 13:32:17;;;;;;;11.93;6.50;;;;;;;;;;4959571;28;20223;-69
2021/03/23 13:35:23;;;;;;;11.07;6.13;;;;;;;;;;4945891;29;20192;-69
2021/03/23 13:38:28;;;;;;;10.40;6.90;;;;;;;;;;4957556;29;20207;-69
2021/03/23 13:41:33;;;;;;;21.07;7.20;;;;;;;;;;4957451;29;20218;-69
2021/03/23 13:44:37;;;;;;;13.10;8.03;;;;;;;;;;4957813;29;20184;-69
2021/03/23 13:47:44;;;;;;;11.00;7.63;;;;;;;;;;4957331;29;20230;-69
2021/03/23 13:50:49;;;;;;;13.50;7.30;;;;;;;;;;4945837;29;20183;-69
2021/03/23 13:53:53;;;;;;;11.03;6.57;;;;;;;;;;4945497;29;20179;-69
2021/03/23 13:56:59;;;;;;;9.93;7.57;;;;;;;;;;4957281;29;20180;-69
2021/03/23 14:00:06;;;;;;;13.03;8.20;;;;;;;;;;4957776;29;20192;-69
2021/03/23 14:03:12;;;;;;;10.83;6.97;;;;;;;;;;4957115;29;20211;-69
2021/03/23 14:06:20;;;;;;;11.23;7.37;;;;;;;;;;4957244;29;20211;-70
2021/03/23 14:09:40;;;;;;;10.93;7.80;;;;;;;;;;4957175;29;20192;-70
2021/03/23 14:12:44;;;;;;;16.90;7.67;;;;;;;;;;4945245;29;20227;-69
2021/03/23 14:15:49;;;;;;;15.30;9.43;;;;;;;;;;4957062;29;20187;-69
2021/03/23 14:18:53;;;;;;;31.10;17.53;;;;;;;;;;4956727;29;20191;-69
2021/03/23 14:21:57;;;;;;;25.60;15.50;;;;;;;;;;4957142;29;20223;-70
2021/03/23 14:25:21;;;;;;;18.20;11.63;;;;;;;;;;4956649;29;20200;-69
2021/03/23 14:28:51;;;;;;;40.13;22.03;;;;;;;;;;4956776;29;20195;-70
2021/03/23 14:31:56;;;;;;;17.63;11.40;;;;;;;;;;4943906;29;20222;-69
2021/03/23 14:35:00;;;;;;;35.80;19.33;;;;;;;;;;4956170;29;20198;-69
2021/03/23 14:38:04;;;;;;;17.83;9.10;;;;;;;;;;4956137;29;20210;-69
2021/03/23 14:41:16;;;;;;;26.77;8.63;;;;;;;;;;4956162;29;20223;-70
2021/03/23 14:44:20;;;;;;;10.40;6.70;;;;;;;;;;4956092;29;20191;-70
2021/03/23 14:47:26;;;;;;;32.43;7.13;;;;;;;;;;4956186;29;20207;-70
2021/03/23 14:50:31;;;;;;;9.77;6.47;;;;;;;;;;4956202;29;20184;-70
2021/03/23 14:53:42;;;;;;;9.10;5.77;;;;;;;;;;4956024;29;20550;-70
2021/03/23 14:56:48;;;;;;;8.00;5.07;;;;;;;;;;4956288;29;20187;-69
2021/03/23 14:59:52;;;;;;;6.93;4.90;;;;;;;;;;4944441;29;20184;-69
2021/03/23 15:02:57;;;;;;;14.33;9.93;;;;;;;;;;4956066;29;20591;-69
2021/03/23 15:06:02;;;;;;;10.83;6.00;;;;;;;;;;4956006;29;20188;-70
2021/03/23 15:09:16;;;;;;;6.27;4.90;;;;;;;;;;4944342;29;20179;-70
2021/03/23 15:12:22;;;;;;;9.53;5.60;;;;;;;;;;4943700;29;20223;-70
2021/03/23 15:15:28;;;;;;;12.10;7.17;;;;;;;;;;4955766;29;20188;-70
2021/03/23 15:18:32;;;;;;;12.60;7.50;;;;;;;;;;4955466;29;20203;-69
2021/03/23 15:21:41;;;;;;;11.20;6.63;;;;;;;;;;4943786;29;20222;-70
2021/03/23 15:24:45;;;;;;;12.27;5.87;;;;;;;;;;4955784;29;20179;-70
2021/03/23 15:27:50;;;;;;;7.70;5.03;;;;;;;;;;4956000;29;20536;-70
2021/03/23 15:30:55;;;;;;;7.03;4.57;;;;;;;;;;4943886;29;20191;-70
2021/03/23 15:33:59;;;;;;;6.63;5.20;;;;;;;;;;4955326;29;20192;-70
2021/03/23 15:37:12;;;;;;;6.70;5.00;;;;;;;;;;4943237;29;20682;-70
2021/03/23 15:40:19;;;;;;;8.87;5.67;;;;;;;;;;4955255;29;20184;-70
2021/03/23 15:43:28;;;;;;;11.10;5.63;;;;;;;;;;4955486;28;20335;-70
2021/03/23 15:46:32;;;;;;;8.57;5.60;;;;;;;;;;4955192;29;20204;-69
2021/03/23 15:49:36;;;;;;;8.20;5.27;;;;;;;;;;4955461;29;20642;-69
2021/03/23 15:52:46;;;;;;;9.70;6.00;;;;;;;;;;4954930;29;20227;-69
2021/03/23 15:55:50;;;;;;;10.40;5.90;;;;;;;;;;4955188;29;20203;-69
2021/03/23 15:58:55;;;;;;;10.43;6.17;;;;;;;;;;4943466;29;20516;-69
2021/03/23 16:01:59;;;;;;;8.30;5.83;;;;;;;;;;4955142;29;20567;-69
2021/03/23 16:05:04;;;;;;;14.17;6.30;;;;;;;;;;4943090;29;20183;-69
2021/03/23 16:08:15;;;;;;;8.33;5.67;;;;;;;;;;4943463;29;20215;-69
2021/03/23 16:11:23;;;;;;;10.20;6.73;;;;;;;;;;4954801;29;20227;-69
2021/03/23 16:14:27;;;;;;;10.97;6.87;;;;;;;;;;4955102;29;20183;-69
2021/03/23 16:17:32;;;;;;;24.17;12.13;;;;;;;;;;4955016;29;20188;-69
2021/03/23 16:20:36;;;;;;;18.70;8.67;;;;;;;;;;4954981;29;20191;-69
2021/03/23 16:23:40;;;;;;;9.03;6.00;;;;;;;;;;4943210;29;20191;-69
2021/03/23 16:26:45;;;;;;;14.73;10.90;;;;;;;;;;4954845;29;20183;-69
2021/03/23 16:29:50;;;;;;;21.27;16.90;;;;;;;;;;4955045;29;20195;-69
2021/03/23 16:32:55;;;;;;;33.67;22.00;;;;;;;;;;4943243;29;20235;-69
2021/03/23 16:35:59;;;;;;;15.03;10.20;;;;;;;;;;4954722;29;20196;-70
2021/03/23 16:39:04;;;;;;;27.63;16.60;;;;;;;;;;4955074;29;20195;-69
2021/03/23 16:42:13;;;;;;;15.87;8.87;;;;;;;;;;4954554;29;20231;-69
2021/03/23 16:45:28;;;;;;;13.23;9.40;;;;;;;;;;4943248;29;20187;-69
2021/03/23 16:48:34;;;;;;;21.20;14.27;;;;;;;;;;4954457;29;20211;-69
2021/03/23 16:51:45;;;;;;;14.47;9.63;;;;;;;;;;4942829;29;20587;-69
2021/03/23 16:54:49;;;;;;;13.97;11.40;;;;;;;;;;4956949;28;20655;-69
2021/03/23 16:57:54;;;;;;;15.90;11.83;;;;;;;;;;4976953;28;20202;-69
2021/03/23 17:00:59;;;;;;;16.13;11.60;;;;;;;;;;4958142;29;20197;-69
2021/03/23 17:04:04;;;;;;;15.77;9.40;;;;;;;;;;4950469;28;20573;-69
2021/03/23 17:07:08;;;;;;;15.87;11.80;;;;;;;;;;4969692;28;20215;-69
2021/03/23 17:10:14;;;;;;;15.33;11.53;;;;;;;;;;4956126;28;20205;-69
2021/03/23 17:13:19;;;;;;;10.80;7.40;;;;;;;;;;4962361;28;20201;-69
2021/03/23 17:16:23;;;;;;;10.60;7.17;;;;;;;;;;4966639;28;20191;-69
2021/03/23 17:19:27;;;;;;;10.83;6.40;;;;;;;;;;4973386;28;20535;-69
2021/03/23 17:22:31;;;;;;;8.17;6.33;;;;;;;;;;4957991;29;20219;-69
2021/03/23 17:25:41;;;;;;;9.70;6.37;;;;;;;;;;4957705;29;20188;-69
2021/03/23 17:28:45;;;;;;;10.87;5.97;;;;;;;;;;4957911;29;20227;-69
2021/03/23 17:31:50;;;;;;;10.10;5.43;;;;;;;;;;4948247;28;20234;-69
2021/03/23 17:34:54;;;;;;;12.40;5.63;;;;;;;;;;4976009;28;20183;-69
2021/03/23 17:37:59;;;;;;;7.33;5.13;;;;;;;;;;4976487;28;20198;-69
2021/03/23 17:41:03;;;;;;;9.27;6.40;;;;;;;;;;4975139;28;20722;-69
2021/03/23 17:44:07;;;;;;;13.17;7.17;;;;;;;;;;4957505;28;20183;-69
2021/03/23 17:47:11;;;;;;;11.20;6.70;;;;;;;;;;4945485;29;20191;-69
2021/03/23 17:50:16;;;;;;;10.17;7.23;;;;;;;;;;4954442;28;20543;-69
2021/03/23 17:53:24;;;;;;;9.10;5.23;;;;;;;;;;4954891;28;20184;-70
2021/03/23 17:56:28;;;;;;;15.00;6.80;;;;;;;;;;4956929;29;20184;-70
2021/03/23 17:59:32;;;;;;;12.60;5.67;;;;;;;;;;4975766;28;20183;-69
2021/03/23 18:02:37;;;;;;;9.83;6.20;;;;;;;;;;4962382;28;20227;-69
2021/03/23 18:05:41;;;;;;;8.63;5.67;;;;;;;;;;4955748;28;20191;-69
2021/03/23 18:08:45;;;;;;;6.97;4.73;;;;;;;;;;4960976;28;20895;-69
2021/03/23 18:11:49;;;;;;;8.33;5.67;;;;;;;;;;4968714;28;20223;-69
2021/03/23 18:14:53;;;;;;;7.30;5.47;;;;;;;;;;4956319;29;20203;-70
2021/03/23 18:18:02;;;;;;;9.27;5.50;;;;;;;;;;4946599;28;20198;-70
2021/03/23 18:21:06;;;;;;;9.93;6.10;;;;;;;;;;4957108;28;20230;-69
2021/03/23 18:24:10;;;;;;;15.77;8.63;;;;;;;;;;4956696;29;20183;-69
2021/03/23 18:27:15;;;;;;;14.00;7.80;;;;;;;;;;4966694;28;20203;-71
2021/03/23 18:30:19;;;;;;;11.33;6.50;;;;;;;;;;4964332;28;20647;-71